createdAt,value
2023-03-12T00:01:59.668Z,57.08
2023-03-12T00:04:26.623Z,55.99
2023-03-12T00:06:53.033Z,56.16
2023-03-12T00:09:19.505Z,57.24
2023-03-12T00:11:45.952Z,58.05
2023-03-12T00:14:12.443Z,57.84
2023-03-12T00:16:38.881Z,59.06
2023-03-12T00:19:11.257Z,58.35
2023-03-12T00:21:37.669Z,58.32
2023-03-12T00:24:05.536Z,56.91
2023-03-12T00:26:31.977Z,58.55
2023-03-12T00:28:58.462Z,57.92
2023-03-12T00:31:28.730Z,57.18
2023-03-12T00:33:56.156Z,57.45
2023-03-12T00:36:26.708Z,57.86
2023-03-12T00:38:54.502Z,58.19
2023-03-12T00:41:22.281Z,60.30
2023-03-12T00:43:50.372Z,60.90
2023-03-12T00:46:17.389Z,59.07
2023-03-12T00:48:44.387Z,57.06
2023-03-12T00:51:14.110Z,58.38
2023-03-12T00:53:40.582Z,58.91
2023-03-12T00:56:07.418Z,59.02
2023-03-12T00:58:33.846Z,58.58
2023-03-12T01:01:00.368Z,58.80
2023-03-12T01:03:26.851Z,58.06
2023-03-12T01:05:56.076Z,59.60
2023-03-12T01:08:23.314Z,60.07
2023-03-12T01:10:49.896Z,58.89
2023-03-12T01:13:16.635Z,57.70
2023-03-12T01:15:43.182Z,59.07
2023-03-12T01:18:09.686Z,59.69
2023-03-12T01:20:36.267Z,57.27
2023-03-12T01:23:02.732Z,57.14
2023-03-12T01:25:29.174Z,57.44
2023-03-12T01:27:55.681Z,59.27
2023-03-12T01:30:22.152Z,59.79
2023-03-12T01:32:48.573Z,58.82
2023-03-12T01:35:15.079Z,57.99
2023-03-12T01:37:41.540Z,58.75
2023-03-12T01:40:08.547Z,57.31
2023-03-12T01:42:34.985Z,57.37
2023-03-12T01:45:04.833Z,58.34
2023-03-12T01:47:34.358Z,58.41
2023-03-12T01:50:01.449Z,58.02
2023-03-12T01:52:32.179Z,57.27
2023-03-12T01:55:01.634Z,57.13
2023-03-12T01:57:36.282Z,57.24
2023-03-12T02:00:09.660Z,57.64
2023-03-12T02:02:37.244Z,57.54
2023-03-12T02:05:11.646Z,56.94
2023-03-12T02:07:38.150Z,56.42
2023-03-12T02:10:05.485Z,56.48
2023-03-12T02:12:32.363Z,57.04
2023-03-12T02:14:58.885Z,57.35
2023-03-12T02:17:25.495Z,56.94
2023-03-12T02:19:57.792Z,56.41
2023-03-12T02:22:25.051Z,56.71
2023-03-12T02:24:58.426Z,56.90
2023-03-12T02:27:24.974Z,56.60
2023-03-12T02:29:51.774Z,57.42
2023-03-12T02:32:26.127Z,57.33
2023-03-12T02:34:52.600Z,57.08
2023-03-12T02:37:19.396Z,56.49
2023-03-12T02:39:54.781Z,56.81
2023-03-12T02:42:22.882Z,56.53
2023-03-12T02:44:49.840Z,56.61
2023-03-12T02:47:16.448Z,56.59
2023-03-12T02:49:42.956Z,56.23
2023-03-12T02:52:10.739Z,56.19
2023-03-12T02:54:37.263Z,55.97
2023-03-12T02:57:03.884Z,56.10
2023-03-12T02:59:30.414Z,55.66
2023-03-12T03:01:59.178Z,55.38
2023-03-12T03:04:26.512Z,55.72
2023-03-12T03:06:53.491Z,56.14
2023-03-12T03:09:22.166Z,55.92
2023-03-12T03:11:49.448Z,55.45
2023-03-12T03:14:16.134Z,55.90
2023-03-12T03:16:42.592Z,55.12
2023-03-12T03:19:09.100Z,55.66
2023-03-12T03:21:35.538Z,54.96
2023-03-12T03:24:02.037Z,55.26
2023-03-12T03:26:28.588Z,55.07
2023-03-12T03:28:55.328Z,55.64
2023-03-12T03:31:21.860Z,56.21
2023-03-12T03:33:48.786Z,55.57
2023-03-12T03:36:15.578Z,55.43
2023-03-12T03:38:44.166Z,55.39
2023-03-12T03:41:10.574Z,55.09
2023-03-12T03:43:36.977Z,55.31
2023-03-12T03:46:05.637Z,56.08
2023-03-12T03:48:32.594Z,55.55
2023-03-12T03:51:03.206Z,55.29
2023-03-12T03:53:30.043Z,55.96
2023-03-12T03:55:56.605Z,55.32
2023-03-12T03:58:23.313Z,55.49
2023-03-12T04:00:49.858Z,55.53
2023-03-12T04:03:16.294Z,55.87
2023-03-12T04:05:45.264Z,55.86
2023-03-12T04:08:13.320Z,55.30
2023-03-12T04:10:40.738Z,55.81
2023-03-12T04:13:07.397Z,56.10
2023-03-12T04:15:33.825Z,55.37
2023-03-12T04:18:00.354Z,55.89
2023-03-12T04:20:26.813Z,55.89
2023-03-12T04:22:53.225Z,56.42
2023-03-12T04:25:19.611Z,56.03
2023-03-12T04:27:46.012Z,56.51
2023-03-12T04:30:12.956Z,55.57
2023-03-12T04:32:39.430Z,56.31
2023-03-12T04:35:06.009Z,56.54
2023-03-12T04:37:34.008Z,56.44
2023-03-12T04:40:01.928Z,56.20
2023-03-12T04:42:28.366Z,56.61
2023-03-12T04:44:54.776Z,56.49
2023-03-12T04:47:21.251Z,57.23
2023-03-12T04:49:47.774Z,57.51
2023-03-12T04:52:14.347Z,57.55
2023-03-12T04:54:40.742Z,57.58
2023-03-12T04:57:07.157Z,57.64
2023-03-12T04:59:33.604Z,57.89
2023-03-12T05:02:00.171Z,57.17
2023-03-12T05:04:26.623Z,56.86
2023-03-12T05:06:53.034Z,57.00
2023-03-12T05:09:19.520Z,56.81
2023-03-12T05:11:45.972Z,57.00
2023-03-12T05:14:12.479Z,57.21
2023-03-12T05:16:39.077Z,56.88
2023-03-12T05:19:05.987Z,57.33
2023-03-12T05:21:33.234Z,56.64
2023-03-12T05:24:00.205Z,56.85
2023-03-12T05:26:31.314Z,57.43
2023-03-12T05:28:58.551Z,57.65
2023-03-12T05:31:25.762Z,57.27
2023-03-12T05:33:53.214Z,57.38
2023-03-12T05:36:20.484Z,57.62
2023-03-12T05:38:46.962Z,57.88
2023-03-12T05:41:25.153Z,57.67
2023-03-12T05:43:56.421Z,57.51
2023-03-12T05:46:25.333Z,57.72
2023-03-12T05:48:52.230Z,57.31
2023-03-12T05:51:19.200Z,56.99
2023-03-12T05:53:45.782Z,56.64
2023-03-12T05:56:15.159Z,56.88
2023-03-12T05:58:42.033Z,56.84
2023-03-12T06:01:15.283Z,56.55
2023-03-12T06:03:43.095Z,56.70
2023-03-12T06:06:10.881Z,56.67
2023-03-12T06:08:37.717Z,56.17
2023-03-12T06:11:04.365Z,56.39
2023-03-12T06:13:31.305Z,56.26
2023-03-12T06:16:24.952Z,55.30
2023-03-12T06:19:02.124Z,55.91
2023-03-12T06:21:34.804Z,55.63
2023-03-12T06:24:02.070Z,55.52
2023-03-12T06:26:28.811Z,55.40
2023-03-12T06:28:55.273Z,56.15
2023-03-12T06:31:21.909Z,55.53
2023-03-12T06:33:48.717Z,55.15
2023-03-12T06:36:15.451Z,54.84
2023-03-12T06:38:42.430Z,54.99
2023-03-12T06:41:15.333Z,54.86
2023-03-12T06:43:43.519Z,55.34
2023-03-12T06:46:14.608Z,54.89
2023-03-12T06:48:41.520Z,55.39
2023-03-12T06:51:10.033Z,55.48
2023-03-12T06:53:36.765Z,55.30
2023-03-12T06:56:04.201Z,56.09
2023-03-12T06:58:31.607Z,56.12
2023-03-12T07:00:58.133Z,55.62
2023-03-12T07:03:24.565Z,54.59
2023-03-12T07:05:51.775Z,56.20
2023-03-12T07:08:19.046Z,56.70
2023-03-12T07:10:46.134Z,55.96
2023-03-12T07:13:13.048Z,54.70
2023-03-12T07:15:39.704Z,55.65
2023-03-12T07:18:11.114Z,55.43
2023-03-12T07:20:39.570Z,55.66
2023-03-12T07:23:06.161Z,54.42
2023-03-12T07:25:36.473Z,54.64
2023-03-12T07:28:03.707Z,54.53
2023-03-12T07:30:33.379Z,53.99
2023-03-12T07:33:07.993Z,53.27
2023-03-12T07:35:34.727Z,54.21
2023-03-12T07:38:02.142Z,54.90
2023-03-12T07:40:29.136Z,54.16
2023-03-12T07:42:56.060Z,53.66
2023-03-12T07:45:23.362Z,53.00
2023-03-12T07:47:50.282Z,54.09
2023-03-12T07:50:19.912Z,53.61
2023-03-12T07:52:47.967Z,54.24
2023-03-12T07:55:15.239Z,53.78
2023-03-12T07:57:42.071Z,53.79
2023-03-12T08:00:10.781Z,53.63
2023-03-12T08:02:37.599Z,53.78
2023-03-12T08:05:04.579Z,52.99
2023-03-12T08:07:32.441Z,54.03
2023-03-12T08:09:59.924Z,53.38
2023-03-12T08:12:27.051Z,53.00
2023-03-12T08:14:53.674Z,51.92
2023-03-12T08:17:20.523Z,53.42
2023-03-12T08:19:47.028Z,51.69
2023-03-12T08:22:13.486Z,52.02
2023-03-12T08:24:40.016Z,52.17
2023-03-12T08:27:06.487Z,51.19
2023-03-12T08:29:33.487Z,52.12
2023-03-12T08:32:05.219Z,51.25
2023-03-12T08:34:32.562Z,50.68
2023-03-12T08:36:59.159Z,51.20
2023-03-12T08:39:25.966Z,50.50
2023-03-12T08:41:55.281Z,51.85
2023-03-12T08:44:23.251Z,52.18
2023-03-12T08:46:49.879Z,52.82
2023-03-12T08:49:16.443Z,52.00
2023-03-12T08:51:42.836Z,50.66
2023-03-12T08:54:09.547Z,50.77
2023-03-12T08:56:42.296Z,50.20
2023-03-12T08:59:12.844Z,50.19
2023-03-12T09:01:43.000Z,49.53
2023-03-12T09:04:10.198Z,49.93
2023-03-12T09:06:38.354Z,50.35
2023-03-12T09:09:05.776Z,50.08
2023-03-12T09:11:34.312Z,49.78
2023-03-12T09:14:36.694Z,48.98
2023-03-12T09:16:49.236Z,50.35
2023-03-12T09:19:16.055Z,50.09
2023-03-12T09:21:42.522Z,50.20
2023-03-12T09:24:09.969Z,49.79
2023-03-12T09:26:36.477Z,50.37
2023-03-12T09:29:02.922Z,49.55
2023-03-12T09:31:29.380Z,49.96
2023-03-12T09:33:55.842Z,49.43
2023-03-12T09:36:22.311Z,48.46
2023-03-12T09:38:48.753Z,49.16
2023-03-12T09:41:28.637Z,48.34
2023-03-12T09:44:23.669Z,48.33
2023-03-12T09:46:53.575Z,46.72
2023-03-12T09:49:46.815Z,45.88
2023-03-12T09:52:40.296Z,45.39
2023-03-12T09:55:21.891Z,45.81
2023-03-12T09:57:51.212Z,46.27
2023-03-12T10:00:29.424Z,46.33
2023-03-12T10:03:29.894Z,46.97
2023-03-12T10:06:38.172Z,45.93
2023-03-12T10:09:26.301Z,46.48
2023-03-12T10:12:10.554Z,46.72
2023-03-12T10:15:06.429Z,46.34
2023-03-12T10:17:54.164Z,46.80
2023-03-12T10:20:45.276Z,47.37
2023-03-12T10:23:24.527Z,46.08
2023-03-12T10:26:05.604Z,47.05
2023-03-12T10:28:40.977Z,46.56
2023-03-12T10:31:15.844Z,46.56
2023-03-12T10:33:53.493Z,47.58
2023-03-12T10:36:28.394Z,47.39
2023-03-12T10:38:55.017Z,48.29
2023-03-12T10:46:00.561Z,47.54
2023-03-12T10:48:37.405Z,47.59
2023-03-12T10:51:06.905Z,48.10
2023-03-12T10:56:29.058Z,49.57
2023-03-12T10:59:39.196Z,47.52
2023-03-12T11:02:39.534Z,46.63
2023-03-12T11:05:54.658Z,46.49
2023-03-12T11:08:39.915Z,48.37
2023-03-12T11:14:39.522Z,47.00
2023-03-12T11:17:41.963Z,47.68
2023-03-12T11:20:39.143Z,48.24
2023-03-12T11:23:37.295Z,46.56
2023-03-12T11:26:11.548Z,47.40
2023-03-12T11:28:42.969Z,47.65
2023-03-12T11:40:47.522Z,47.55
2023-03-12T11:47:46.701Z,45.62
2023-03-12T11:50:58.291Z,47.62
2023-03-12T11:53:55.658Z,46.75
2023-03-12T11:56:35.027Z,46.53
2023-03-12T11:59:27.600Z,46.42
2023-03-12T12:02:14.811Z,47.04
2023-03-12T12:05:09.007Z,48.86
2023-03-12T12:08:23.892Z,47.38
2023-03-12T12:11:05.568Z,52.25
2023-03-12T12:13:38.011Z,49.07
2023-03-12T12:16:28.983Z,51.23
2023-03-12T12:19:05.673Z,49.90
2023-03-12T12:21:35.123Z,51.36
2023-03-12T12:24:14.861Z,51.43
2023-03-12T12:27:04.220Z,50.59
2023-03-12T12:29:56.117Z,51.17
2023-03-12T12:33:01.145Z,54.01
2023-03-12T12:35:35.489Z,51.79
2023-03-12T12:38:30.407Z,50.80
2023-03-12T12:41:18.525Z,51.02
2023-03-12T12:43:49.521Z,51.83
2023-03-12T12:46:21.004Z,50.96
2023-03-12T12:49:00.789Z,52.00
2023-03-12T12:51:32.583Z,50.41
2023-03-12T12:54:16.198Z,51.47
2023-03-12T12:57:06.094Z,50.88
2023-03-12T13:00:02.448Z,52.19
2023-03-12T13:02:33.892Z,51.42
2023-03-12T13:05:01.183Z,50.42
2023-03-12T13:07:28.150Z,50.93
2023-03-12T13:09:56.871Z,51.61
2023-03-12T13:12:28.996Z,51.29
2023-03-12T13:14:57.478Z,50.76
2023-03-12T13:17:29.360Z,53.92
2023-03-12T13:20:15.224Z,53.11
2023-03-12T13:23:03.525Z,52.88
2023-03-12T13:25:57.991Z,57.02
2023-03-12T13:28:30.221Z,58.17
2023-03-12T13:30:59.734Z,56.42
2023-03-12T13:33:45.316Z,58.96
2023-03-12T13:36:24.340Z,59.97
2023-03-12T13:38:59.629Z,58.03
2023-03-12T13:41:45.406Z,57.59
2023-03-12T13:44:40.970Z,57.76
2023-03-12T13:47:10.415Z,58.20
2023-03-12T13:49:45.923Z,57.62
2023-03-12T13:52:31.044Z,60.66
2023-03-12T13:54:59.578Z,58.95
2023-03-12T13:57:35.553Z,62.26
2023-03-12T14:00:06.602Z,61.67
2023-03-12T14:02:36.919Z,61.58
2023-03-12T14:05:08.108Z,65.89
2023-03-12T14:08:25.336Z,63.30
2023-03-12T14:11:03.650Z,65.38
2023-03-12T14:13:53.633Z,64.51
2023-03-12T14:16:31.506Z,62.78
2023-03-12T14:18:58.104Z,63.75
2023-03-12T14:21:32.555Z,63.74
2023-03-12T14:24:00.290Z,64.08
2023-03-12T14:26:31.736Z,63.17
2023-03-12T14:29:08.678Z,64.59
2023-03-12T14:31:36.675Z,63.60
2023-03-12T14:34:09.896Z,62.15
2023-03-12T14:36:42.853Z,63.58
2023-03-12T14:39:31.708Z,62.52
2023-03-12T14:42:06.518Z,63.70
2023-03-12T14:44:36.595Z,63.48
2023-03-12T14:47:06.910Z,62.94
2023-03-12T14:49:40.315Z,62.45
2023-03-12T14:52:07.396Z,64.71
2023-03-12T14:54:33.817Z,63.68
2023-03-12T14:57:00.279Z,66.63
2023-03-12T14:59:32.358Z,66.40
2023-03-12T15:02:13.360Z,67.32
2023-03-12T15:04:41.324Z,68.85
2023-03-12T15:07:12.896Z,69.94
2023-03-12T15:09:44.478Z,69.58
2023-03-12T15:12:23.862Z,69.84
2023-03-12T15:14:54.529Z,71.46
2023-03-12T15:17:24.347Z,74.52
2023-03-12T15:19:54.644Z,70.15
2023-03-12T15:22:24.620Z,72.20
2023-03-12T15:24:51.445Z,74.88
2023-03-12T15:27:28.182Z,75.78
2023-03-12T15:29:56.454Z,74.71
2023-03-12T15:32:25.718Z,73.36
2023-03-12T15:34:54.268Z,77.40
2023-03-12T15:37:37.886Z,77.75
2023-03-12T15:40:25.610Z,74.58
2023-03-12T15:42:57.404Z,77.33
2023-03-12T15:45:28.350Z,78.65
2023-03-12T15:47:55.538Z,75.19
2023-03-12T15:50:23.727Z,73.77
2023-03-12T15:53:07.787Z,76.40
2023-03-12T15:55:35.755Z,77.45
2023-03-12T15:58:02.889Z,76.17
2023-03-12T16:00:43.170Z,75.84
2023-03-12T16:03:17.575Z,76.67
2023-03-12T16:05:44.600Z,78.90
2023-03-12T16:08:26.577Z,79.32
2023-03-12T16:10:53.573Z,81.54
2023-03-12T16:13:22.697Z,80.60
2023-03-12T16:15:49.472Z,76.90
2023-03-12T16:18:18.545Z,79.93
2023-03-12T16:20:45.938Z,79.44
2023-03-12T16:23:13.339Z,79.00
2023-03-12T16:25:43.422Z,78.38
2023-03-12T16:28:15.419Z,79.84
2023-03-12T16:30:41.975Z,77.48
2023-03-12T16:33:09.592Z,78.03
2023-03-12T16:35:36.264Z,78.15
2023-03-12T16:38:03.741Z,77.52
2023-03-12T16:40:37.013Z,78.01
2023-03-12T16:43:06.726Z,78.61
2023-03-12T16:45:35.735Z,79.71
2023-03-12T16:48:05.578Z,77.82
2023-03-12T16:50:32.421Z,78.19
2023-03-12T16:52:59.934Z,76.82
2023-03-12T16:55:29.834Z,78.14
2023-03-12T16:58:00.237Z,76.84
2023-03-12T17:00:33.076Z,78.00
2023-03-12T17:02:59.973Z,78.85
2023-03-12T17:05:30.299Z,77.80
2023-03-12T17:07:57.627Z,77.63
2023-03-12T17:10:25.648Z,77.88
2023-03-12T17:12:53.516Z,77.07
2023-03-12T17:15:23.118Z,77.76
2023-03-12T17:17:49.986Z,79.20
2023-03-12T17:20:18.682Z,80.47
2023-03-12T17:22:45.529Z,79.97
2023-03-12T17:25:22.793Z,82.17
2023-03-12T17:27:49.357Z,84.40
2023-03-12T17:30:15.922Z,82.83
2023-03-12T17:32:42.394Z,83.33
2023-03-12T17:35:09.125Z,80.42
2023-03-12T17:37:35.766Z,80.60
2023-03-12T17:40:08.427Z,81.18
2023-03-12T17:42:35.931Z,78.94
2023-03-12T17:45:04.263Z,78.66
2023-03-12T17:47:31.147Z,78.89
2023-03-12T17:49:57.694Z,80.50
2023-03-12T17:52:29.199Z,79.05
2023-03-12T17:54:55.652Z,79.67
2023-03-12T17:57:22.692Z,80.67
2023-03-12T17:59:49.165Z,81.21
2023-03-12T18:02:15.625Z,79.09
2023-03-12T18:04:42.295Z,80.90
2023-03-12T18:07:09.071Z,82.15
2023-03-12T18:09:35.773Z,81.26
2023-03-12T18:12:02.465Z,77.15
2023-03-12T18:14:28.891Z,78.68
2023-03-12T18:16:55.426Z,78.84
2023-03-12T18:19:21.869Z,78.10
2023-03-12T18:21:48.272Z,78.14
2023-03-12T18:24:14.953Z,78.62
2023-03-12T18:26:41.595Z,78.60
2023-03-12T18:29:08.008Z,78.36
2023-03-12T18:31:34.620Z,78.96
2023-03-12T18:34:01.094Z,79.27
2023-03-12T18:36:27.525Z,79.53
2023-03-12T18:38:53.934Z,78.61
2023-03-12T18:41:20.431Z,79.33
2023-03-12T18:43:46.936Z,77.10
2023-03-12T18:46:13.632Z,78.47
2023-03-12T18:48:42.298Z,76.46
2023-03-12T18:51:10.075Z,76.75
2023-03-12T18:53:36.512Z,76.42
2023-03-12T18:56:03.006Z,76.67
2023-03-12T18:58:29.557Z,77.66
2023-03-12T19:00:57.479Z,76.93
2023-03-12T19:03:25.068Z,75.60
2023-03-12T19:06:03.834Z,76.38
2023-03-12T19:08:30.341Z,78.79
2023-03-12T19:10:56.811Z,77.34
2023-03-12T19:13:23.434Z,76.42
2023-03-12T19:15:49.892Z,77.72
2023-03-12T19:18:16.318Z,76.46
2023-03-12T19:20:42.744Z,75.01
2023-03-12T19:23:09.254Z,75.64
2023-03-12T19:25:35.818Z,76.38
2023-03-12T19:28:02.241Z,78.33
2023-03-12T19:30:30.609Z,76.35
2023-03-12T19:32:57.066Z,76.87
2023-03-12T19:35:23.578Z,76.42
2023-03-12T19:37:50.085Z,75.13
2023-03-12T19:40:16.865Z,77.77
2023-03-12T19:42:43.348Z,76.79
2023-03-12T19:45:11.106Z,78.76
2023-03-12T19:47:37.544Z,78.32
2023-03-12T19:50:04.294Z,77.82
2023-03-12T19:52:30.779Z,75.38
2023-03-12T19:55:04.785Z,73.89
2023-03-12T19:57:31.476Z,76.55
2023-03-12T19:59:57.961Z,75.78
2023-03-12T20:02:24.791Z,74.48
2023-03-12T20:04:51.284Z,75.65
2023-03-12T20:07:18.390Z,74.33
2023-03-12T20:09:44.831Z,73.07
2023-03-12T20:12:11.474Z,76.35
2023-03-12T20:14:37.888Z,75.36
2023-03-12T20:17:04.337Z,73.33
2023-03-12T20:19:30.804Z,74.75
2023-03-12T20:21:57.355Z,72.36
2023-03-12T20:24:23.995Z,72.13
2023-03-12T20:26:50.455Z,71.29
2023-03-12T20:29:16.920Z,70.54
2023-03-12T20:31:43.487Z,70.08
2023-03-12T20:34:10.149Z,69.67
2023-03-12T20:36:36.581Z,70.08
2023-03-12T20:39:03.329Z,69.51
2023-03-12T20:41:30.697Z,69.58
2023-03-12T20:43:57.680Z,69.12
2023-03-12T20:46:24.473Z,71.23
2023-03-12T20:48:51.371Z,71.31
2023-03-12T20:51:17.960Z,69.86
2023-03-12T20:53:44.644Z,68.72
2023-03-12T20:56:11.942Z,68.41
2023-03-12T20:58:38.474Z,68.62
2023-03-12T21:01:05.963Z,68.63
2023-03-12T21:03:32.534Z,68.22
2023-03-12T21:06:01.186Z,68.24
2023-03-12T21:08:28.747Z,69.45
2023-03-12T21:10:55.207Z,69.85
2023-03-12T21:13:23.149Z,69.53
2023-03-12T21:15:50.510Z,72.97
2023-03-12T21:18:17.282Z,73.58
2023-03-12T21:20:43.975Z,72.66
2023-03-12T21:23:11.065Z,74.66
2023-03-12T21:25:39.882Z,73.07
2023-03-12T21:28:07.695Z,72.56
2023-03-12T21:30:34.182Z,73.96
2023-03-12T21:33:02.065Z,73.28
2023-03-12T21:35:29.011Z,73.02
2023-03-12T21:37:58.908Z,71.80
2023-03-12T21:40:25.350Z,74.69
2023-03-12T21:42:51.781Z,71.26
2023-03-12T21:45:18.243Z,72.45
2023-03-12T21:47:44.695Z,73.15
2023-03-12T21:50:11.707Z,73.78
2023-03-12T21:52:43.740Z,73.37
2023-03-12T21:55:10.673Z,73.42
2023-03-12T21:57:37.175Z,72.35
2023-03-12T22:00:04.858Z,69.53
2023-03-12T22:02:31.688Z,68.80
2023-03-12T22:05:01.175Z,68.25
2023-03-12T22:07:30.454Z,70.38
2023-03-12T22:09:57.190Z,67.78
2023-03-12T22:12:23.698Z,69.42
2023-03-12T22:14:50.359Z,71.73
2023-03-12T22:17:17.257Z,74.11
2023-03-12T22:19:44.009Z,73.32
2023-03-12T22:22:10.479Z,70.22
2023-03-12T22:24:37.463Z,68.58
2023-03-12T22:27:06.534Z,68.76
2023-03-12T22:29:34.106Z,68.57
2023-03-12T22:32:00.547Z,69.92
2023-03-12T22:34:27.083Z,72.57
2023-03-12T22:36:53.497Z,71.74
2023-03-12T22:39:19.970Z,71.29
2023-03-12T22:41:50.556Z,69.70
2023-03-12T22:44:17.446Z,71.51
2023-03-12T22:46:43.978Z,72.08
2023-03-12T22:49:10.529Z,70.03
2023-03-12T22:51:37.243Z,69.64
2023-03-12T22:54:04.467Z,70.45
2023-03-12T22:56:30.926Z,70.04
2023-03-12T22:58:57.453Z,70.08
2023-03-12T23:01:24.109Z,70.52
2023-03-12T23:03:51.140Z,70.25
2023-03-12T23:06:22.290Z,68.29
2023-03-12T23:08:49.316Z,67.57
2023-03-12T23:11:16.869Z,67.26
2023-03-12T23:13:45.411Z,68.96
2023-03-12T23:16:15.262Z,70.18
2023-03-12T23:18:42.865Z,68.13
2023-03-12T23:21:12.114Z,66.63
2023-03-12T23:23:41.178Z,67.86
2023-03-12T23:26:08.124Z,65.83
2023-03-12T23:28:34.561Z,63.35
2023-03-12T23:31:04.793Z,64.59
2023-03-12T23:33:32.541Z,64.04
2023-03-12T23:36:06.159Z,63.49
2023-03-12T23:38:34.719Z,63.47
2023-03-12T23:41:09.180Z,63.28
2023-03-12T23:43:35.684Z,62.92
2023-03-12T23:46:03.983Z,63.16
2023-03-12T23:48:32.617Z,62.77
2023-03-12T23:51:08.092Z,62.65
2023-03-12T23:53:35.451Z,63.07
2023-03-12T23:56:03.586Z,62.60
2023-03-12T23:58:30.245Z,62.27
